sensor_id;sensor_type;location;lat;lon;timestamp;pressure;altitude;pressure_sealevel;temperature;humidity
5877;BME280;2964;42.144;24.730;2023-01-27T00:00:19;141942.00;;;1.25;100.00
5877;BME280;2964;42.144;24.730;2023-01-27T00:02:46;141928.28;;;1.20;100.00
5877;BME280;2964;42.144;24.730;2023-01-27T00:05:14;141960.72;;;1.33;100.00
5877;BME280;2964;42.144;24.730;2023-01-27T00:07:42;141914.59;;;1.14;100.00
5877;BME280;2964;42.144;24.730;2023-01-27T00:10:12;141912.13;;;1.13;100.00
5877;BME280;2964;42.144;24.730;2023-01-27T00:12:41;141995.59;;;1.47;100.00
5877;BME280;2964;42.144;24.730;2023-01-27T00:15:27;141899.66;;;1.08;100.00
5877;BME280;2964;42.144;24.730;2023-01-27T00:17:54;142015.56;;;1.56;100.00
5877;BME280;2964;42.144;24.730;2023-01-27T00:20:21;141935.78;;;1.23;100.00
5877;BME280;2964;42.144;24.730;2023-01-27T00:23:02;141954.47;;;1.30;100.00
5877;BME280;2964;42.144;24.730;2023-01-27T00:25:46;142001.84;;;1.50;100.00
5877;BME280;2964;42.144;24.730;2023-01-27T00:28:15;142047.94;;;1.69;100.00
5877;BME280;2964;42.144;24.730;2023-01-27T00:30:48;141979.41;;;1.41;100.00
5877;BME280;2964;42.144;24.730;2023-01-27T00:33:15;141943.28;;;1.26;100.00
5877;BME280;2964;42.144;24.730;2023-01-27T00:35:55;141947.03;;;1.27;100.00
5877;BME280;2964;42.144;24.730;2023-01-27T00:38:22;141742.69;;;0.43;100.00
5877;BME280;2964;42.144;24.730;2023-01-27T00:40:49;141959.44;;;1.32;100.00
5877;BME280;2964;42.144;24.730;2023-01-27T00:43:29;141930.78;;;1.21;100.00
5877;BME280;2964;42.144;24.730;2023-01-27T00:45:57;141918.31;;;1.15;100.00
5877;BME280;2964;42.144;24.730;2023-01-27T00:48:24;141964.41;;;1.34;100.00
5877;BME280;2964;42.144;24.730;2023-01-27T00:50:51;142001.84;;;1.50;100.00
5877;BME280;2964;42.144;24.730;2023-01-27T00:53:18;141930.78;;;1.21;100.00
5877;BME280;2964;42.144;24.730;2023-01-27T00:55:44;141953.22;;;1.30;100.00
5877;BME280;2964;42.144;24.730;2023-01-27T00:58:12;142014.31;;;1.55;100.00
5877;BME280;2964;42.144;24.730;2023-01-27T01:00:39;142014.31;;;1.55;100.00
5877;BME280;2964;42.144;24.730;2023-01-27T01:03:07;142076.59;;;1.81;100.00
5877;BME280;2964;42.144;24.730;2023-01-27T01:05:33;142079.13;;;1.82;100.00
5877;BME280;2964;42.144;24.730;2023-01-27T01:08:00;142114.03;;;1.96;100.00
5877;BME280;2964;42.144;24.730;2023-01-27T01:10:27;142187.59;;;2.26;100.00
5877;BME280;2964;42.144;24.730;2023-01-27T01:12:53;142198.84;;;2.31;100.00
5877;BME280;2964;42.144;24.730;2023-01-27T01:15:20;142171.41;;;2.20;100.00
5877;BME280;2964;42.144;24.730;2023-01-27T01:17:47;142203.84;;;2.33;100.00
5877;BME280;2964;42.144;24.730;2023-01-27T01:20:15;142157.69;;;2.14;100.00
5877;BME280;2964;42.144;24.730;2023-01-27T01:22:42;142050.47;;;1.70;100.00
5877;BME280;2964;42.144;24.730;2023-01-27T01:25:08;142062.91;;;1.75;100.00
5877;BME280;2964;42.144;24.730;2023-01-27T01:27:35;142104.09;;;1.92;100.00
5877;BME280;2964;42.144;24.730;2023-01-27T01:30:02;142021.75;;;1.58;100.00
5877;BME280;2964;42.144;24.730;2023-01-27T01:32:28;141986.84;;;1.44;100.00
5877;BME280;2964;42.144;24.730;2023-01-27T01:34:55;141980.63;;;1.41;100.00
5877;BME280;2964;42.144;24.730;2023-01-27T01:37:23;142100.34;;;1.90;100.00
5877;BME280;2964;42.144;24.730;2023-01-27T01:39:50;142143.94;;;2.08;100.00
5877;BME280;2964;42.144;24.730;2023-01-27T01:42:16;142200.09;;;2.31;100.00
5877;BME280;2964;42.144;24.730;2023-01-27T01:44:43;142111.53;;;1.95;100.00
5877;BME280;2964;42.144;24.730;2023-01-27T01:47:14;142071.63;;;1.79;100.00
5877;BME280;2964;42.144;24.730;2023-01-27T01:49:43;141994.34;;;1.47;100.00
5877;BME280;2964;42.144;24.730;2023-01-27T01:52:13;141963.19;;;1.34;100.00
5877;BME280;2964;42.144;24.730;2023-01-27T01:54:44;141953.22;;;1.30;100.00
5877;BME280;2964;42.144;24.730;2023-01-27T01:57:17;142081.63;;;1.83;100.00
5877;BME280;2964;42.144;24.730;2023-01-27T01:59:47;142056.69;;;1.72;100.00
5877;BME280;2964;42.144;24.730;2023-01-27T02:02:17;142010.56;;;1.53;100.00
5877;BME280;2964;42.144;24.730;2023-01-27T02:04:49;141981.88;;;1.42;100.00
5877;BME280;2964;42.144;24.730;2023-01-27T02:07:21;141979.41;;;1.41;100.00
5877;BME280;2964;42.144;24.730;2023-01-27T02:09:52;141965.69;;;1.35;100.00
5877;BME280;2964;42.144;24.730;2023-01-27T02:12:20;141958.22;;;1.32;100.00
5877;BME280;2964;42.144;24.730;2023-01-27T02:14:46;142009.28;;;1.53;100.00
5877;BME280;2964;42.144;24.730;2023-01-27T02:17:13;142131.50;;;2.03;100.00
5877;BME280;2964;42.144;24.730;2023-01-27T02:19:48;142077.88;;;1.81;100.00
5877;BME280;2964;42.144;24.730;2023-01-27T02:22:24;142084.09;;;1.84;100.00
5877;BME280;2964;42.144;24.730;2023-01-27T02:25:01;142071.63;;;1.79;100.00
5877;BME280;2964;42.144;24.730;2023-01-27T02:27:32;142111.53;;;1.95;100.00
5877;BME280;2964;42.144;24.730;2023-01-27T02:29:59;142072.91;;;1.79;100.00
5877;BME280;2964;42.144;24.730;2023-01-27T02:32:26;141994.34;;;1.47;100.00
5877;BME280;2964;42.144;24.730;2023-01-27T02:34:54;142001.84;;;1.50;100.00
5877;BME280;2964;42.144;24.730;2023-01-27T02:37:23;141981.88;;;1.42;100.00
5877;BME280;2964;42.144;24.730;2023-01-27T02:39:50;141969.44;;;1.37;100.00
5877;BME280;2964;42.144;24.730;2023-01-27T02:42:18;141959.44;;;1.32;100.00
5877;BME280;2964;42.144;24.730;2023-01-27T02:44:46;142045.47;;;1.68;100.00
5877;BME280;2964;42.144;24.730;2023-01-27T02:47:13;142110.28;;;1.95;100.00
5877;BME280;2964;42.144;24.730;2023-01-27T02:49:39;142115.28;;;1.97;100.00
5877;BME280;2964;42.144;24.730;2023-01-27T02:52:06;142039.22;;;1.65;100.00
5877;BME280;2964;42.144;24.730;2023-01-27T02:54:33;141956.97;;;1.31;100.00
5877;BME280;2964;42.144;24.730;2023-01-27T02:56:59;142111.53;;;1.95;100.00
5877;BME280;2964;42.144;24.730;2023-01-27T02:59:26;142042.97;;;1.67;100.00
5877;BME280;2964;42.144;24.730;2023-01-27T03:01:54;141980.63;;;1.41;100.00
5877;BME280;2964;42.144;24.730;2023-01-27T03:04:21;142131.50;;;2.03;100.00
5877;BME280;2964;42.144;24.730;2023-01-27T03:06:47;142141.47;;;2.07;100.00
5877;BME280;2964;42.144;24.730;2023-01-27T03:09:14;142125.25;;;2.01;100.00
5877;BME280;2964;42.144;24.730;2023-01-27T03:11:40;142228.75;;;2.43;100.00
5877;BME280;2964;42.144;24.730;2023-01-27T03:14:25;142190.13;;;2.27;100.00
5877;BME280;2964;42.144;24.730;2023-01-27T03:17:10;142187.59;;;2.26;100.00
5877;BME280;2964;42.144;24.730;2023-01-27T03:19:54;142130.22;;;2.03;100.00
5877;BME280;2964;42.144;24.730;2023-01-27T03:22:21;142084.09;;;1.84;100.00
5877;BME280;2964;42.144;24.730;2023-01-27T03:24:48;142112.81;;;1.96;100.00
5877;BME280;2964;42.144;24.730;2023-01-27T03:27:15;142047.94;;;1.69;100.00
5877;BME280;2964;42.144;24.730;2023-01-27T03:29:42;142065.41;;;1.76;100.00
5877;BME280;2964;42.144;24.730;2023-01-27T03:32:22;142011.81;;;1.54;100.00
5877;BME280;2964;42.144;24.730;2023-01-27T03:34:48;142084.09;;;1.84;100.00
5877;BME280;2964;42.144;24.730;2023-01-27T03:37:15;142016.78;;;1.56;100.00
5877;BME280;2964;42.144;24.730;2023-01-27T03:39:59;142146.47;;;2.09;100.00
5877;BME280;2964;42.144;24.730;2023-01-27T03:42:43;142104.09;;;1.92;100.00
5877;BME280;2964;42.144;24.730;2023-01-27T03:45:27;142077.88;;;1.81;100.00
5877;BME280;2964;42.144;24.730;2023-01-27T03:48:12;142049.19;;;1.69;100.00
5877;BME280;2964;42.144;24.730;2023-01-27T03:50:42;142021.75;;;1.58;100.00
5877;BME280;2964;42.144;24.730;2023-01-27T03:53:09;142025.50;;;1.60;100.00
5877;BME280;2964;42.144;24.730;2023-01-27T03:55:37;142024.28;;;1.59;100.00
5877;BME280;2964;42.144;24.730;2023-01-27T03:58:15;142039.22;;;1.65;100.00
5877;BME280;2964;42.144;24.730;2023-01-27T04:00:44;142021.75;;;1.58;100.00
5877;BME280;2964;42.144;24.730;2023-01-27T04:03:12;142060.44;;;1.74;100.00
5877;BME280;2964;42.144;24.730;2023-01-27T04:05:56;142046.72;;;1.68;100.00
5877;BME280;2964;42.144;24.730;2023-01-27T04:08:41;142045.47;;;1.68;100.00
5877;BME280;2964;42.144;24.730;2023-01-27T04:11:08;142067.94;;;1.77;100.00
5877;BME280;2964;42.144;24.730;2023-01-27T04:13:52;142094.06;;;1.88;100.00
5877;BME280;2964;42.144;24.730;2023-01-27T04:16:19;142065.41;;;1.76;100.00
5877;BME280;2964;42.144;24.730;2023-01-27T04:18:54;142051.69;;;1.70;100.00
5877;BME280;2964;42.144;24.730;2023-01-27T04:21:21;142133.97;;;2.04;100.00
5877;BME280;2964;42.144;24.730;2023-01-27T04:23:48;142109.06;;;1.94;100.00
5877;BME280;2964;42.144;24.730;2023-01-27T04:26:14;142055.44;;;1.72;100.00
5877;BME280;2964;42.144;24.730;2023-01-27T04:28:41;142042.97;;;1.67;100.00
5877;BME280;2964;42.144;24.730;2023-01-27T04:31:07;142059.19;;;1.73;100.00
5877;BME280;2964;42.144;24.730;2023-01-27T04:33:37;142038.00;;;1.65;100.00
5877;BME280;2964;42.144;24.730;2023-01-27T04:36:15;142177.63;;;2.22;100.00
5877;BME280;2964;42.144;24.730;2023-01-27T04:38:42;142059.19;;;1.73;100.00
5877;BME280;2964;42.144;24.730;2023-01-27T04:41:09;142051.69;;;1.70;100.00
5877;BME280;2964;42.144;24.730;2023-01-27T04:43:36;142054.16;;;1.71;100.00
5877;BME280;2964;42.144;24.730;2023-01-27T04:46:03;142049.19;;;1.69;100.00
5877;BME280;2964;42.144;24.730;2023-01-27T04:48:29;141998.09;;;1.48;100.00
5877;BME280;2964;42.144;24.730;2023-01-27T04:51:02;141998.09;;;1.48;100.00
5877;BME280;2964;42.144;24.730;2023-01-27T04:53:30;142046.72;;;1.68;100.00
5877;BME280;2964;42.144;24.730;2023-01-27T04:56:00;142034.25;;;1.63;100.00
5877;BME280;2964;42.144;24.730;2023-01-27T04:58:27;142111.53;;;1.95;100.00
5877;BME280;2964;42.144;24.730;2023-01-27T05:00:54;142076.59;;;1.81;100.00
5877;BME280;2964;42.144;24.730;2023-01-27T05:03:21;142146.47;;;2.09;100.00
5877;BME280;2964;42.144;24.730;2023-01-27T05:05:47;142119.03;;;1.98;100.00
5877;BME280;2964;42.144;24.730;2023-01-27T05:08:14;142094.06;;;1.88;100.00
5877;BME280;2964;42.144;24.730;2023-01-27T05:10:43;142076.59;;;1.81;100.00
5877;BME280;2964;42.144;24.730;2023-01-27T05:13:10;142056.69;;;1.72;100.00
5877;BME280;2964;42.144;24.730;2023-01-27T05:15:37;142056.69;;;1.72;100.00
5877;BME280;2964;42.144;24.730;2023-01-27T05:18:03;142056.69;;;1.72;100.00
5877;BME280;2964;42.144;24.730;2023-01-27T05:20:30;142055.44;;;1.72;100.00
5877;BME280;2964;42.144;24.730;2023-01-27T05:22:57;142004.31;;;1.51;100.00
5877;BME280;2964;42.144;24.730;2023-01-27T05:25:41;142056.69;;;1.72;100.00
5877;BME280;2964;42.144;24.730;2023-01-27T05:28:09;142081.63;;;1.83;100.00
5877;BME280;2964;42.144;24.730;2023-01-27T05:30:35;142059.19;;;1.73;100.00
5877;BME280;2964;42.144;24.730;2023-01-27T05:33:02;142193.88;;;2.29;100.00
5877;BME280;2964;42.144;24.730;2023-01-27T05:35:31;142249.97;;;2.52;100.00
5877;BME280;2964;42.144;24.730;2023-01-27T05:37:58;142076.59;;;1.81;100.00
5877;BME280;2964;42.144;24.730;2023-01-27T05:40:25;142105.31;;;1.92;100.00
5877;BME280;2964;42.144;24.730;2023-01-27T05:42:52;142086.63;;;1.85;100.00
5877;BME280;2964;42.144;24.730;2023-01-27T05:45:20;142081.63;;;1.83;100.00
5877;BME280;2964;42.144;24.730;2023-01-27T05:47:48;142084.09;;;1.84;100.00
5877;BME280;2964;42.144;24.730;2023-01-27T05:50:15;142074.13;;;1.80;100.00
5877;BME280;2964;42.144;24.730;2023-01-27T05:52:43;142082.88;;;1.83;100.00
5877;BME280;2964;42.144;24.730;2023-01-27T05:55:10;142044.19;;;1.67;100.00
5877;BME280;2964;42.144;24.730;2023-01-27T05:57:36;142076.59;;;1.81;100.00
5877;BME280;2964;42.144;24.730;2023-01-27T06:00:04;142155.19;;;2.13;100.00
5877;BME280;2964;42.144;24.730;2023-01-27T06:02:32;142146.47;;;2.09;100.00
5877;BME280;2964;42.144;24.730;2023-01-27T06:04:59;142129.00;;;2.02;100.00
5877;BME280;2964;42.144;24.730;2023-01-27T06:07:25;142116.50;;;1.97;100.00
5877;BME280;2964;42.144;24.730;2023-01-27T06:09:52;142122.78;;;2.00;100.00
5877;BME280;2964;42.144;24.730;2023-01-27T06:12:19;141934.53;;;1.22;100.00
5877;BME280;2964;42.144;24.730;2023-01-27T06:14:45;142152.66;;;2.12;100.00
5877;BME280;2964;42.144;24.730;2023-01-27T06:17:12;142146.47;;;2.09;100.00
5877;BME280;2964;42.144;24.730;2023-01-27T06:19:40;142158.94;;;2.15;100.00
5877;BME280;2964;42.144;24.730;2023-01-27T06:22:07;142161.41;;;2.16;100.00
5877;BME280;2964;42.144;24.730;2023-01-27T06:24:33;142168.91;;;2.19;100.00
5877;BME280;2964;42.144;24.730;2023-01-27T06:27:00;142167.66;;;2.18;100.00
5877;BME280;2964;42.144;24.730;2023-01-27T06:29:27;142173.88;;;2.21;100.00
5877;BME280;2964;42.144;24.730;2023-01-27T06:31:53;142198.84;;;2.31;100.00
5877;BME280;2964;42.144;24.730;2023-01-27T06:34:20;142176.41;;;2.22;100.00
5877;BME280;2964;42.144;24.730;2023-01-27T06:36:48;142163.91;;;2.17;100.00
5877;BME280;2964;42.144;24.730;2023-01-27T06:39:15;142190.13;;;2.27;100.00
5877;BME280;2964;42.144;24.730;2023-01-27T06:41:41;142203.84;;;2.33;100.00
5877;BME280;2964;42.144;24.730;2023-01-27T06:44:08;142173.88;;;2.21;100.00
5877;BME280;2964;42.144;24.730;2023-01-27T06:46:35;142203.84;;;2.33;100.00
5877;BME280;2964;42.144;24.730;2023-01-27T06:49:01;142208.81;;;2.35;100.00
5877;BME280;2964;42.144;24.730;2023-01-27T06:51:28;142246.22;;;2.50;100.00
5877;BME280;2964;42.144;24.730;2023-01-27T06:53:56;142220.03;;;2.40;100.00
5877;BME280;2964;42.144;24.730;2023-01-27T06:56:23;142261.22;;;2.57;100.00
5877;BME280;2964;42.144;24.730;2023-01-27T06:58:49;142271.22;;;2.61;100.00
5877;BME280;2964;42.144;24.730;2023-01-27T07:01:16;142298.66;;;2.72;100.00
5877;BME280;2964;42.144;24.730;2023-01-27T07:03:43;142361.03;;;2.98;100.00
5877;BME280;2964;42.144;24.730;2023-01-27T07:06:09;142304.88;;;2.75;100.00
5877;BME280;2964;42.144;24.730;2023-01-27T07:08:36;142308.63;;;2.76;100.00
5877;BME280;2964;42.144;24.730;2023-01-27T07:11:04;142328.63;;;2.84;100.00
5877;BME280;2964;42.144;24.730;2023-01-27T07:13:31;142351.06;;;2.94;100.00
5877;BME280;2964;42.144;24.730;2023-01-27T07:15:58;142261.22;;;2.57;100.00
5877;BME280;2964;42.144;24.730;2023-01-27T07:18:24;142361.03;;;2.98;100.00
5877;BME280;2964;42.144;24.730;2023-01-27T07:20:52;142293.66;;;2.70;100.00
5877;BME280;2964;42.144;24.730;2023-01-27T07:23:19;142313.59;;;2.78;100.00
5877;BME280;2964;42.144;24.730;2023-01-27T07:25:45;142331.09;;;2.85;100.00
5877;BME280;2964;42.144;24.730;2023-01-27T07:28:13;142343.56;;;2.90;100.00
5877;BME280;2964;42.144;24.730;2023-01-27T07:30:40;142376.00;;;3.04;100.00
5877;BME280;2964;42.144;24.730;2023-01-27T07:33:10;142366.03;;;3.00;100.00
5877;BME280;2964;42.144;24.730;2023-01-27T07:35:38;142373.53;;;3.03;100.00
5877;BME280;2964;42.144;24.730;2023-01-27T07:38:05;142462.13;;;3.39;100.00
5877;BME280;2964;42.144;24.730;2023-01-27T07:40:32;142388.50;;;3.09;100.00
5877;BME280;2964;42.144;24.730;2023-01-27T07:43:00;142402.22;;;3.15;100.00
5877;BME280;2964;42.144;24.730;2023-01-27T07:45:29;142354.81;;;2.95;100.00
5877;BME280;2964;42.144;24.730;2023-01-27T07:47:59;142450.91;;;3.35;100.00
5877;BME280;2964;42.144;24.730;2023-01-27T07:50:26;142435.97;;;3.28;100.00
5877;BME280;2964;42.144;24.730;2023-01-27T07:52:52;142449.69;;;3.34;100.00
5877;BME280;2964;42.144;24.730;2023-01-27T07:55:19;142465.88;;;3.41;100.00
5877;BME280;2964;42.144;24.730;2023-01-27T07:57:46;142495.88;;;3.53;100.00
5877;BME280;2964;42.144;24.730;2023-01-27T08:00:13;142460.91;;;3.39;100.00
5877;BME280;2964;42.144;24.730;2023-01-27T08:02:42;142478.38;;;3.46;100.00
5877;BME280;2964;42.144;24.730;2023-01-27T08:05:08;142518.34;;;3.62;100.00
5877;BME280;2964;42.144;24.730;2023-01-27T08:07:35;142508.38;;;3.58;100.00
5877;BME280;2964;42.144;24.730;2023-01-27T08:10:02;142490.88;;;3.51;100.00
5877;BME280;2964;42.144;24.730;2023-01-27T08:12:28;142484.63;;;3.48;100.00
5877;BME280;2964;42.144;24.730;2023-01-27T08:14:55;142504.63;;;3.57;100.00
5877;BME280;2964;42.144;24.730;2023-01-27T08:17:22;142548.34;;;3.75;100.00
5877;BME280;2964;42.144;24.730;2023-01-27T08:19:50;142514.59;;;3.61;100.00
5877;BME280;2964;42.144;24.730;2023-01-27T08:22:17;142565.81;;;3.82;100.00
5877;BME280;2964;42.144;24.730;2023-01-27T08:24:46;142629.53;;;4.08;100.00
5877;BME280;2964;42.144;24.730;2023-01-27T08:27:13;142665.75;;;4.23;100.00
5877;BME280;2964;42.144;24.730;2023-01-27T08:29:40;142647.03;;;4.15;100.00
5877;BME280;2964;42.144;24.730;2023-01-27T08:32:07;142629.53;;;4.08;100.00
5877;BME280;2964;42.144;24.730;2023-01-27T08:34:35;142650.72;;;4.17;100.00
5877;BME280;2964;42.144;24.730;2023-01-27T08:37:03;142738.22;;;4.53;100.00
5877;BME280;2964;42.144;24.730;2023-01-27T08:39:30;142785.75;;;4.72;100.00
5877;BME280;2964;42.144;24.730;2023-01-27T08:41:57;142783.22;;;4.71;100.00
5877;BME280;2964;42.144;24.730;2023-01-27T08:44:23;142743.22;;;4.55;100.00
5877;BME280;2964;42.144;24.730;2023-01-27T08:46:52;142718.25;;;4.44;100.00
5877;BME280;2964;42.144;24.730;2023-01-27T08:49:19;142719.50;;;4.45;100.00
5877;BME280;2964;42.144;24.730;2023-01-27T08:51:45;142697.00;;;4.36;100.00
5877;BME280;2964;42.144;24.730;2023-01-27T08:54:13;142704.47;;;4.39;100.00
5877;BME280;2964;42.144;24.730;2023-01-27T08:56:40;142739.47;;;4.53;100.00
5877;BME280;2964;42.144;24.730;2023-01-27T08:59:07;142732.00;;;4.50;100.00
5877;BME280;2964;42.144;24.730;2023-01-27T09:01:33;142780.69;;;4.70;100.00
5877;BME280;2964;42.144;24.730;2023-01-27T09:04:00;142753.22;;;4.59;100.00
5877;BME280;2964;42.144;24.730;2023-01-27T09:06:27;142708.22;;;4.40;100.00
5877;BME280;2964;42.144;24.730;2023-01-27T09:08:53;142676.97;;;4.28;100.00
5877;BME280;2964;42.144;24.730;2023-01-27T09:11:35;142690.72;;;4.33;100.00
5877;BME280;2964;42.144;24.730;2023-01-27T09:14:03;142663.22;;;4.22;100.00
5877;BME280;2964;42.144;24.730;2023-01-27T09:16:30;142683.25;;;4.30;100.00
5877;BME280;2964;42.144;24.730;2023-01-27T09:18:56;142808.25;;;4.81;100.00
5877;BME280;2964;42.144;24.730;2023-01-27T09:21:23;142830.75;;;4.91;100.00
5877;BME280;2964;42.144;24.730;2023-01-27T09:23:50;142698.22;;;4.36;100.00
5877;BME280;2964;42.144;24.730;2023-01-27T09:26:17;142703.22;;;4.38;100.00
5877;BME280;2964;42.144;24.730;2023-01-27T09:28:45;142798.19;;;4.77;100.00
5877;BME280;2964;42.144;24.730;2023-01-27T09:31:12;142815.72;;;4.84;100.00
5877;BME280;2964;42.144;24.730;2023-01-27T09:33:38;142830.75;;;4.91;100.00
5877;BME280;2964;42.144;24.730;2023-01-27T09:36:09;142883.22;;;5.12;100.00
5877;BME280;2964;42.144;24.730;2023-01-27T09:38:40;142929.53;;;5.31;100.00
5877;BME280;2964;42.144;24.730;2023-01-27T09:41:27;142899.50;;;5.19;100.00
5877;BME280;2964;42.144;24.730;2023-01-27T09:44:14;142904.50;;;5.21;100.00
5877;BME280;2964;42.144;24.730;2023-01-27T09:47:01;142917.00;;;5.26;100.00
5877;BME280;2964;42.144;24.730;2023-01-27T09:49:43;142856.97;;;5.01;100.00
5877;BME280;2964;42.144;24.730;2023-01-27T09:52:29;142850.72;;;4.99;100.00
5877;BME280;2964;42.144;24.730;2023-01-27T09:55:02;142801.97;;;4.79;100.00
5877;BME280;2964;42.144;24.730;2023-01-27T09:57:40;142751.97;;;4.58;100.00
5877;BME280;2964;42.144;24.730;2023-01-27T10:00:26;142665.75;;;4.23;100.00
5877;BME280;2964;42.144;24.730;2023-01-27T10:06:04;142844.50;;;4.96;100.00
5877;BME280;2964;42.144;24.730;2023-01-27T10:08:57;142755.72;;;4.60;100.00
5877;BME280;2964;42.144;24.730;2023-01-27T10:11:35;142841.97;;;4.95;100.00
5877;BME280;2964;42.144;24.730;2023-01-27T10:14:17;142898.25;;;5.18;100.00
5877;BME280;2964;42.144;24.730;2023-01-27T10:16:58;142860.72;;;5.03;100.00
5877;BME280;2964;42.144;24.730;2023-01-27T10:19:40;142863.25;;;5.04;100.00
5877;BME280;2964;42.144;24.730;2023-01-27T10:22:17;142888.22;;;5.14;100.00
5877;BME280;2964;42.144;24.730;2023-01-27T10:24:55;142865.72;;;5.05;100.00
5877;BME280;2964;42.144;24.730;2023-01-27T10:27:25;142905.72;;;5.21;100.00
5877;BME280;2964;42.144;24.730;2023-01-27T10:29:56;142886.97;;;5.14;100.00
5877;BME280;2964;42.144;24.730;2023-01-27T10:32:26;142947.00;;;5.38;100.00
5877;BME280;2964;42.144;24.730;2023-01-27T10:35:06;142993.31;;;5.57;100.00
5877;BME280;2964;42.144;24.730;2023-01-27T10:37:40;142983.31;;;5.53;100.00
5877;BME280;2964;42.144;24.730;2023-01-27T10:40:16;143003.31;;;5.61;100.00
5877;BME280;2964;42.144;24.730;2023-01-27T10:42:50;142873.22;;;5.08;100.00
5877;BME280;2964;42.144;24.730;2023-01-27T10:45:25;143017.06;;;5.67;100.00
5877;BME280;2964;42.144;24.730;2023-01-27T10:48:13;142977.03;;;5.51;100.00
5877;BME280;2964;42.144;24.730;2023-01-27T10:50:45;142968.25;;;5.47;100.00
5877;BME280;2964;42.144;24.730;2023-01-27T10:53:18;143044.56;;;5.78;100.00
5877;BME280;2964;42.144;24.730;2023-01-27T10:55:53;143065.84;;;5.87;100.00
5877;BME280;2964;42.144;24.730;2023-01-27T10:58:36;143125.94;;;6.12;100.00
5877;BME280;2964;42.144;24.730;2023-01-27T11:01:05;143089.66;;;5.97;100.00
5877;BME280;2964;42.144;24.730;2023-01-27T11:03:39;143142.25;;;6.18;100.00
5877;BME280;2964;42.144;24.730;2023-01-27T11:06:11;143176.00;;;6.32;100.00
5877;BME280;2964;42.144;24.730;2023-01-27T11:08:43;143227.34;;;6.53;100.00
5877;BME280;2964;42.144;24.730;2023-01-27T11:11:10;143234.84;;;6.56;100.00
5877;BME280;2964;42.144;24.730;2023-01-27T11:16:54;143296.22;;;6.82;99.80
5877;BME280;2964;42.144;24.730;2023-01-27T11:19:31;143332.53;;;6.96;99.39
5877;BME280;2964;42.144;24.730;2023-01-27T11:22:01;143358.81;;;7.07;98.58
5877;BME280;2964;42.144;24.730;2023-01-27T11:24:34;143368.84;;;7.11;99.10
5877;BME280;2964;42.144;24.730;2023-01-27T11:27:13;143343.81;;;7.01;99.32
5877;BME280;2964;42.144;24.730;2023-01-27T11:29:47;143378.84;;;7.15;99.13
5877;BME280;2964;42.144;24.730;2023-01-27T11:32:32;143351.28;;;7.04;100.00
5877;BME280;2964;42.144;24.730;2023-01-27T11:35:04;143317.50;;;6.90;99.39
5877;BME280;2964;42.144;24.730;2023-01-27T11:37:35;143253.66;;;6.64;100.00
5877;BME280;2964;42.144;24.730;2023-01-27T11:40:05;143201.06;;;6.43;100.00
5877;BME280;2964;42.144;24.730;2023-01-27T11:42:38;143236.13;;;6.57;100.00
5877;BME280;2964;42.144;24.730;2023-01-27T11:45:10;143161.00;;;6.26;100.00
5877;BME280;2964;42.144;24.730;2023-01-27T11:47:40;143156.00;;;6.24;100.00
5877;BME280;2964;42.144;24.730;2023-01-27T11:50:13;143206.06;;;6.45;100.00
5877;BME280;2964;42.144;24.730;2023-01-27T11:52:42;143147.25;;;6.21;100.00
5877;BME280;2964;42.144;24.730;2023-01-27T11:55:16;143196.06;;;6.41;100.00
5877;BME280;2964;42.144;24.730;2023-01-27T11:57:47;143192.28;;;6.39;100.00
5877;BME280;2964;42.144;24.730;2023-01-27T12:00:20;143173.53;;;6.31;100.00
5877;BME280;2964;42.144;24.730;2023-01-27T12:02:53;143211.06;;;6.47;100.00
5877;BME280;2964;42.144;24.730;2023-01-27T12:05:29;143194.81;;;6.40;100.00
5877;BME280;2964;42.144;24.730;2023-01-27T12:07:58;143133.47;;;6.15;100.00
5877;BME280;2964;42.144;24.730;2023-01-27T12:10:28;143108.44;;;6.05;100.00
5877;BME280;2964;42.144;24.730;2023-01-27T12:12:57;143146.00;;;6.20;100.00
5877;BME280;2964;42.144;24.730;2023-01-27T12:15:25;143128.47;;;6.13;100.00
5877;BME280;2964;42.144;24.730;2023-01-27T12:17:55;143221.06;;;6.51;100.00
5877;BME280;2964;42.144;24.730;2023-01-27T12:20:37;143171.00;;;6.30;100.00
5877;BME280;2964;42.144;24.730;2023-01-27T12:23:14;143174.78;;;6.32;100.00
5877;BME280;2964;42.144;24.730;2023-01-27T12:25:46;143117.19;;;6.08;100.00
5877;BME280;2964;42.144;24.730;2023-01-27T12:28:22;143129.72;;;6.13;100.00
5877;BME280;2964;42.144;24.730;2023-01-27T12:30:51;143244.88;;;6.61;100.00
5877;BME280;2964;42.144;24.730;2023-01-27T12:33:23;143218.59;;;6.50;100.00
5877;BME280;2964;42.144;24.730;2023-01-27T12:35:52;143249.91;;;6.63;100.00
5877;BME280;2964;42.144;24.730;2023-01-27T12:38:24;143176.00;;;6.32;100.00
5877;BME280;2964;42.144;24.730;2023-01-27T12:40:56;143273.66;;;6.72;100.00
5877;BME280;2964;42.144;24.730;2023-01-27T12:43:23;143258.66;;;6.66;100.00
5877;BME280;2964;42.144;24.730;2023-01-27T12:46:03;143355.06;;;7.06;99.74
5877;BME280;2964;42.144;24.730;2023-01-27T12:48:31;143366.34;;;7.10;98.76
5877;BME280;2964;42.144;24.730;2023-01-27T12:51:13;143365.06;;;7.10;99.27
5877;BME280;2964;42.144;24.730;2023-01-27T12:53:40;143311.22;;;6.88;100.00
5877;BME280;2964;42.144;24.730;2023-01-27T12:56:11;143248.66;;;6.62;100.00
5877;BME280;2964;42.144;24.730;2023-01-27T12:58:40;143214.81;;;6.48;100.00
5877;BME280;2964;42.144;24.730;2023-01-27T13:01:20;143342.53;;;7.01;100.00
5877;BME280;2964;42.144;24.730;2023-01-27T13:03:52;143283.69;;;6.76;99.80
5877;BME280;2964;42.144;24.730;2023-01-27T13:06:30;143247.38;;;6.62;100.00
5877;BME280;2964;42.144;24.730;2023-01-27T13:08:59;143283.69;;;6.76;100.00
5877;BME280;2964;42.144;24.730;2023-01-27T13:11:34;143217.34;;;6.49;100.00
5877;BME280;2964;42.144;24.730;2023-01-27T13:14:06;143237.38;;;6.57;100.00
5877;BME280;2964;42.144;24.730;2023-01-27T13:16:33;143217.34;;;6.49;100.00
5877;BME280;2964;42.144;24.730;2023-01-27T13:19:00;143208.59;;;6.46;100.00
5877;BME280;2964;42.144;24.730;2023-01-27T13:21:33;143246.13;;;6.61;100.00